Sadiqabad Weather



Sadiqabad's Current Weather

Temprature 26.93o clear sky

clear sky

Rain: 0 %

Min Temprature26.93o
Max Temprature26.93o
Humidity66
Wind Speed3.1 m/h
Sun Rise06:09:37
Sun Set18:12:14
Current Time: 26-Sep-2022 07:21:46
Lat/Lon: 28.3062, 70.1307




Sadiqabad's Geo Location



Sadiqabad's Weather Forecast

Time Overall Temp Min Temp Max Temp Humidity Wind Speed Rain
26-Sep-2022 (Mon)
08:00:00 clear sky 28.810 28.810 28.810 58 4.24 m/h 0 %
11:00:00 clear sky 30.470 30.470 33.800 51 2.89 m/h 0 %
14:00:00 clear sky 34.140 34.140 36.810 36 2.58 m/h 0 %
17:00:00 clear sky 36.530 36.530 36.530 25 2.65 m/h 0 %
20:00:00 clear sky 32.340 32.340 32.340 31 3.44 m/h 0 %
23:00:00 clear sky 30.700 30.700 30.700 32 3.91 m/h 0 %
27-Sep-2022 (Tue)
02:00:00 clear sky 29.030 29.030 29.030 36 4.06 m/h 0 %
05:00:00 clear sky 27.400 27.400 27.400 48 3.89 m/h 0 %
08:00:00 clear sky 29.540 29.540 29.540 53 5.59 m/h 0 %
11:00:00 clear sky 35.310 35.310 35.310 31 5.77 m/h 0 %
14:00:00 clear sky 37.560 37.560 37.560 23 5.13 m/h 0 %
17:00:00 clear sky 36.660 36.660 36.660 23 4.03 m/h 0 %
20:00:00 clear sky 32.150 32.150 32.150 28 3.4 m/h 0 %
23:00:00 clear sky 30.760 30.760 30.760 27 4.29 m/h 0 %
28-Sep-2022 (Wed)
02:00:00 clear sky 28.550 28.550 28.550 41 3.89 m/h 0 %
05:00:00 clear sky 26.950 26.950 26.950 57 3.81 m/h 0 %
08:00:00 clear sky 28.950 28.950 28.950 52 5.39 m/h 0 %
11:00:00 clear sky 35.000 35.000 35.000 25 6.19 m/h 0 %
14:00:00 clear sky 37.400 37.400 37.400 16 5.52 m/h 0 %
17:00:00 clear sky 36.170 36.170 36.170 18 4.42 m/h 0 %
20:00:00 clear sky 31.410 31.410 31.410 23 3.82 m/h 0 %
23:00:00 clear sky 29.840 29.840 29.840 32 4.28 m/h 0 %
29-Sep-2022 (Thu)
02:00:00 clear sky 27.840 27.840 27.840 53 3.97 m/h 0 %
05:00:00 clear sky 25.870 25.870 25.870 65 3.63 m/h 0 %
08:00:00 clear sky 28.270 28.270 28.270 55 5.15 m/h 0 %
11:00:00 clear sky 34.400 34.400 34.400 25 5.74 m/h 0 %
14:00:00 clear sky 36.930 36.930 36.930 18 5.3 m/h 0 %
17:00:00 clear sky 35.820 35.820 35.820 21 3.96 m/h 0 %
20:00:00 clear sky 31.090 31.090 31.090 29 3.4 m/h 0 %
23:00:00 clear sky 29.780 29.780 29.780 34 3.65 m/h 0 %
30-Sep-2022 (Fri)
02:00:00 clear sky 28.220 28.220 28.220 46 3.66 m/h 0 %
05:00:00 clear sky 26.310 26.310 26.310 64 3.92 m/h 0 %
08:00:00 clear sky 28.770 28.770 28.770 54 5.6 m/h 0 %
11:00:00 clear sky 34.620 34.620 34.620 30 6.28 m/h 0 %
14:00:00 clear sky 36.970 36.970 36.970 25 5.3 m/h 0 %
17:00:00 clear sky 35.980 35.980 35.980 25 4.13 m/h 0 %
20:00:00 clear sky 31.590 31.590 31.590 28 3.87 m/h 0 %
23:00:00 clear sky 29.860 29.860 29.860 32 4.04 m/h 0 %
01-Oct-2022 (Sat)
02:00:00 clear sky 28.300 28.300 28.300 44 4.01 m/h 0 %
05:00:00 clear sky 26.450 26.450 26.450 63 3.93 m/h 0 %


Sadiqabad's Tourist Spots

Historical Places in Sadiqabad

Famous Cities (61)